sensor_id;sensor_type;location;lat;lon;timestamp;pressure;altitude;pressure_sealevel;temperature;humidity
28079;BME280;15388;42.238;24.684;2023-04-27T00:01:56;98932.59;;;11.46;83.32
28079;BME280;15388;42.238;24.684;2023-04-27T00:04:22;98940.06;;;11.51;82.50
28079;BME280;15388;42.238;24.684;2023-04-27T00:06:47;98934.41;;;11.45;83.18
28079;BME280;15388;42.238;24.684;2023-04-27T00:09:12;98928.75;;;11.49;83.71
28079;BME280;15388;42.238;24.684;2023-04-27T00:11:38;98934.75;;;11.51;83.54
28079;BME280;15388;42.238;24.684;2023-04-27T00:14:04;98946.78;;;11.55;83.66
28079;BME280;15388;42.238;24.684;2023-04-27T00:16:30;98940.41;;;11.48;84.73
28079;BME280;15388;42.238;24.684;2023-04-27T00:18:55;98943.41;;;11.44;85.69
28079;BME280;15388;42.238;24.684;2023-04-27T00:21:21;98951.66;;;11.33;86.29
28079;BME280;15388;42.238;24.684;2023-04-27T00:23:46;98957.28;;;11.30;86.06
28079;BME280;15388;42.238;24.684;2023-04-27T00:26:11;98965.88;;;11.24;85.71
28079;BME280;15388;42.238;24.684;2023-04-27T00:28:37;98959.25;;;11.28;86.55
28079;BME280;15388;42.238;24.684;2023-04-27T00:31:02;98962.22;;;11.25;86.51
28079;BME280;15388;42.238;24.684;2023-04-27T00:33:28;98975.84;;;11.21;86.20
28079;BME280;15388;42.238;24.684;2023-04-27T00:35:58;98966.56;;;11.26;86.16
28079;BME280;15388;42.238;24.684;2023-04-27T00:38:26;98974.03;;;11.22;86.53
28079;BME280;15388;42.238;24.684;2023-04-27T00:40:59;98973.88;;;11.24;85.76
28079;BME280;15388;42.238;24.684;2023-04-27T00:43:25;98972.25;;;11.31;85.44
28079;BME280;15388;42.238;24.684;2023-04-27T00:45:50;98970.22;;;11.25;85.40
28079;BME280;15388;42.238;24.684;2023-04-27T00:48:16;98979.19;;;11.24;86.38
28079;BME280;15388;42.238;24.684;2023-04-27T00:50:41;98975.34;;;11.18;86.28
28079;BME280;15388;42.238;24.684;2023-04-27T00:53:07;98974.47;;;11.17;86.09
28079;BME280;15388;42.238;24.684;2023-04-27T00:55:33;98983.31;;;11.18;85.90
28079;BME280;15388;42.238;24.684;2023-04-27T00:57:58;98987.94;;;11.16;85.24
28079;BME280;15388;42.238;24.684;2023-04-27T01:00:24;98999.75;;;11.13;85.11
28079;BME280;15388;42.238;24.684;2023-04-27T01:02:50;98997.63;;;11.17;84.44
28079;BME280;15388;42.238;24.684;2023-04-27T01:05:18;98996.41;;;11.11;84.52
28079;BME280;15388;42.238;24.684;2023-04-27T01:07:44;99004.38;;;11.11;84.06
28079;BME280;15388;42.238;24.684;2023-04-27T01:10:09;99003.41;;;11.12;83.40
28079;BME280;15388;42.238;24.684;2023-04-27T01:12:34;99007.38;;;11.08;83.15
28079;BME280;15388;42.238;24.684;2023-04-27T01:15:00;99021.28;;;11.02;82.60
28079;BME280;15388;42.238;24.684;2023-04-27T01:17:25;99008.28;;;10.99;83.10
28079;BME280;15388;42.238;24.684;2023-04-27T01:19:51;99011.63;;;11.01;81.45
28079;BME280;15388;42.238;24.684;2023-04-27T01:22:20;99006.91;;;10.94;82.13
28079;BME280;15388;42.238;24.684;2023-04-27T01:24:45;99019.63;;;11.01;81.13
28079;BME280;15388;42.238;24.684;2023-04-27T01:27:11;99025.56;;;10.94;81.20
28079;BME280;15388;42.238;24.684;2023-04-27T01:29:37;99032.25;;;10.99;80.47
28079;BME280;15388;42.238;24.684;2023-04-27T01:32:03;99037.50;;;10.90;81.18
28079;BME280;15388;42.238;24.684;2023-04-27T01:34:29;99038.47;;;10.89;80.86
28079;BME280;15388;42.238;24.684;2023-04-27T01:36:54;99037.34;;;10.92;80.49
28079;BME280;15388;42.238;24.684;2023-04-27T01:39:19;99041.13;;;10.89;80.08
28079;BME280;15388;42.238;24.684;2023-04-27T01:41:45;99044.13;;;10.86;80.38
28079;BME280;15388;42.238;24.684;2023-04-27T01:44:11;99045.94;;;10.86;80.98
28079;BME280;15388;42.238;24.684;2023-04-27T01:46:36;99046.38;;;10.81;80.96
28079;BME280;15388;42.238;24.684;2023-04-27T01:49:02;99047.75;;;10.85;80.93
28079;BME280;15388;42.238;24.684;2023-04-27T01:51:27;99056.03;;;10.82;81.29
28079;BME280;15388;42.238;24.684;2023-04-27T01:53:52;99053.69;;;10.79;82.11
28079;BME280;15388;42.238;24.684;2023-04-27T01:56:18;99052.28;;;10.75;82.16
28079;BME280;15388;42.238;24.684;2023-04-27T01:58:43;99057.03;;;10.81;82.38
28079;BME280;15388;42.238;24.684;2023-04-27T02:01:09;99062.41;;;10.89;82.49
28079;BME280;15388;42.238;24.684;2023-04-27T02:03:34;99058.38;;;10.85;82.46
28079;BME280;15388;42.238;24.684;2023-04-27T02:06:00;99054.66;;;10.78;82.41
28079;BME280;15388;42.238;24.684;2023-04-27T02:08:25;99061.13;;;10.75;82.67
28079;BME280;15388;42.238;24.684;2023-04-27T02:10:51;99061.69;;;10.79;82.94
28079;BME280;15388;42.238;24.684;2023-04-27T02:13:16;99062.94;;;10.75;83.47
28079;BME280;15388;42.238;24.684;2023-04-27T02:15:42;99066.28;;;10.77;83.71
28079;BME280;15388;42.238;24.684;2023-04-27T02:18:07;99069.66;;;10.79;83.85
28079;BME280;15388;42.238;24.684;2023-04-27T02:20:33;99061.56;;;10.70;84.18
28079;BME280;15388;42.238;24.684;2023-04-27T02:22:58;99072.81;;;10.64;85.18
28079;BME280;15388;42.238;24.684;2023-04-27T02:25:25;99076.84;;;10.68;85.53
28079;BME280;15388;42.238;24.684;2023-04-27T02:27:50;99077.59;;;10.61;86.01
28079;BME280;15388;42.238;24.684;2023-04-27T02:30:16;99079.81;;;10.65;86.78
28079;BME280;15388;42.238;24.684;2023-04-27T02:32:41;99068.72;;;10.70;87.26
28079;BME280;15388;42.238;24.684;2023-04-27T02:35:08;99075.06;;;10.59;87.63
28079;BME280;15388;42.238;24.684;2023-04-27T02:37:33;99068.81;;;10.50;88.20
28079;BME280;15388;42.238;24.684;2023-04-27T02:39:59;99077.66;;;10.51;88.26
28079;BME280;15388;42.238;24.684;2023-04-27T02:42:25;99079.53;;;10.58;88.11
28079;BME280;15388;42.238;24.684;2023-04-27T02:44:51;99083.53;;;10.44;87.79
28079;BME280;15388;42.238;24.684;2023-04-27T02:47:17;99086.72;;;10.58;87.44
28079;BME280;15388;42.238;24.684;2023-04-27T02:49:42;99081.69;;;10.55;88.12
28079;BME280;15388;42.238;24.684;2023-04-27T02:52:08;99091.31;;;10.66;87.61
28079;BME280;15388;42.238;24.684;2023-04-27T02:54:33;99085.66;;;10.69;85.47
28079;BME280;15388;42.238;24.684;2023-04-27T02:57:00;99091.13;;;10.67;86.30
28079;BME280;15388;42.238;24.684;2023-04-27T02:59:25;99080.81;;;10.64;85.42
28079;BME280;15388;42.238;24.684;2023-04-27T03:01:51;99093.66;;;10.69;83.70
28079;BME280;15388;42.238;24.684;2023-04-27T03:04:16;99097.16;;;10.69;84.66
28079;BME280;15388;42.238;24.684;2023-04-27T03:06:42;99092.72;;;10.60;84.28
28079;BME280;15388;42.238;24.684;2023-04-27T03:09:10;99095.16;;;10.43;84.67
28079;BME280;15388;42.238;24.684;2023-04-27T03:11:36;99098.38;;;10.47;84.83
28079;BME280;15388;42.238;24.684;2023-04-27T03:14:02;99097.81;;;10.43;84.11
28079;BME280;15388;42.238;24.684;2023-04-27T03:16:31;99099.81;;;10.31;84.41
28079;BME280;15388;42.238;24.684;2023-04-27T03:18:57;99094.50;;;10.31;84.73
28079;BME280;15388;42.238;24.684;2023-04-27T03:21:22;99108.50;;;10.24;84.38
28079;BME280;15388;42.238;24.684;2023-04-27T03:23:48;99110.19;;;10.25;83.48
28079;BME280;15388;42.238;24.684;2023-04-27T03:26:13;99110.19;;;10.25;83.46
28079;BME280;15388;42.238;24.684;2023-04-27T03:28:39;99112.88;;;10.25;83.63
28079;BME280;15388;42.238;24.684;2023-04-27T03:31:06;99124.19;;;10.27;83.17
28079;BME280;15388;42.238;24.684;2023-04-27T03:33:32;99116.91;;;10.29;83.14
28079;BME280;15388;42.238;24.684;2023-04-27T03:35:58;99114.16;;;10.21;83.51
28079;BME280;15388;42.238;24.684;2023-04-27T03:38:24;99121.13;;;10.22;83.49
28079;BME280;15388;42.238;24.684;2023-04-27T03:40:50;99125.41;;;10.32;83.76
28079;BME280;15388;42.238;24.684;2023-04-27T03:43:17;99123.47;;;10.35;82.53
28079;BME280;15388;42.238;24.684;2023-04-27T03:45:42;99127.44;;;10.21;83.30
28079;BME280;15388;42.238;24.684;2023-04-27T03:48:08;99129.50;;;10.27;83.58
28079;BME280;15388;42.238;24.684;2023-04-27T03:50:33;99126.16;;;10.25;83.23
28079;BME280;15388;42.238;24.684;2023-04-27T03:52:59;99135.41;;;10.21;82.28
28079;BME280;15388;42.238;24.684;2023-04-27T03:55:24;99142.13;;;10.25;81.67
28079;BME280;15388;42.238;24.684;2023-04-27T03:57:50;99143.66;;;10.27;81.39
28079;BME280;15388;42.238;24.684;2023-04-27T04:00:16;99149.25;;;10.24;80.03
28079;BME280;15388;42.238;24.684;2023-04-27T04:02:43;99147.97;;;10.28;80.10
28079;BME280;15388;42.238;24.684;2023-04-27T04:05:08;99160.16;;;10.21;79.45
28079;BME280;15388;42.238;24.684;2023-04-27T04:07:34;99154.84;;;10.21;77.94
28079;BME280;15388;42.238;24.684;2023-04-27T04:09:59;99156.22;;;10.25;78.78
28079;BME280;15388;42.238;24.684;2023-04-27T04:12:25;99165.34;;;10.23;77.75
28079;BME280;15388;42.238;24.684;2023-04-27T04:14:50;99155.28;;;10.16;78.35
28079;BME280;15388;42.238;24.684;2023-04-27T04:17:16;99162.44;;;10.16;78.07
28079;BME280;15388;42.238;24.684;2023-04-27T04:19:41;99165.63;;;10.19;78.39
28079;BME280;15388;42.238;24.684;2023-04-27T04:22:06;99174.31;;;10.22;78.43
28079;BME280;15388;42.238;24.684;2023-04-27T04:24:32;99174.44;;;10.20;77.26
28079;BME280;15388;42.238;24.684;2023-04-27T04:26:57;99181.00;;;10.26;77.06
28079;BME280;15388;42.238;24.684;2023-04-27T04:29:23;99183.53;;;10.27;77.65
28079;BME280;15388;42.238;24.684;2023-04-27T04:31:50;99181.88;;;10.26;77.33
28079;BME280;15388;42.238;24.684;2023-04-27T04:34:15;99184.06;;;10.31;76.16
28079;BME280;15388;42.238;24.684;2023-04-27T04:36:40;99181.84;;;10.36;76.99
28079;BME280;15388;42.238;24.684;2023-04-27T04:39:06;99185.16;;;10.38;77.07
28079;BME280;15388;42.238;24.684;2023-04-27T04:41:33;99183.06;;;10.42;76.74
28079;BME280;15388;42.238;24.684;2023-04-27T04:43:58;99183.38;;;10.39;77.23
28079;BME280;15388;42.238;24.684;2023-04-27T04:46:24;99185.22;;;10.28;76.81
28079;BME280;15388;42.238;24.684;2023-04-27T04:48:50;99193.31;;;10.47;77.92
28079;BME280;15388;42.238;24.684;2023-04-27T04:51:16;99204.50;;;10.50;76.77
28079;BME280;15388;42.238;24.684;2023-04-27T04:53:41;99200.03;;;10.51;76.43
28079;BME280;15388;42.238;24.684;2023-04-27T04:56:13;99194.13;;;10.57;75.70
28079;BME280;15388;42.238;24.684;2023-04-27T04:58:39;99194.91;;;10.67;76.59
28079;BME280;15388;42.238;24.684;2023-04-27T05:01:05;99203.03;;;10.76;75.80
28079;BME280;15388;42.238;24.684;2023-04-27T05:03:31;99210.34;;;10.64;74.08
28079;BME280;15388;42.238;24.684;2023-04-27T05:05:56;99221.13;;;10.62;74.74
28079;BME280;15388;42.238;24.684;2023-04-27T05:08:23;99224.50;;;10.64;74.53
28079;BME280;15388;42.238;24.684;2023-04-27T05:10:49;99216.19;;;10.67;74.39
28079;BME280;15388;42.238;24.684;2023-04-27T05:13:15;99221.00;;;10.64;73.79
28079;BME280;15388;42.238;24.684;2023-04-27T05:15:40;99225.47;;;10.63;73.96
28079;BME280;15388;42.238;24.684;2023-04-27T05:18:06;99218.47;;;10.62;74.11
28079;BME280;15388;42.238;24.684;2023-04-27T05:20:34;99231.22;;;10.58;73.16
28079;BME280;15388;42.238;24.684;2023-04-27T05:23:00;99228.84;;;10.65;72.14
28079;BME280;15388;42.238;24.684;2023-04-27T05:25:25;99232.16;;;10.67;73.02
28079;BME280;15388;42.238;24.684;2023-04-27T05:27:51;99233.44;;;10.73;75.25
28079;BME280;15388;42.238;24.684;2023-04-27T05:30:16;99229.34;;;10.79;74.06
28079;BME280;15388;42.238;24.684;2023-04-27T05:32:42;99229.59;;;10.86;73.65
28079;BME280;15388;42.238;24.684;2023-04-27T05:35:07;99237.00;;;10.92;74.00
28079;BME280;15388;42.238;24.684;2023-04-27T05:37:33;99238.53;;;10.94;73.06
28079;BME280;15388;42.238;24.684;2023-04-27T05:39:58;99238.81;;;10.91;72.65
28079;BME280;15388;42.238;24.684;2023-04-27T05:42:24;99245.56;;;10.86;71.95
28079;BME280;15388;42.238;24.684;2023-04-27T05:44:49;99243.06;;;10.84;73.94
28079;BME280;15388;42.238;24.684;2023-04-27T05:47:15;99243.63;;;10.88;72.59
28079;BME280;15388;42.238;24.684;2023-04-27T05:49:40;99247.81;;;10.90;72.65
28079;BME280;15388;42.238;24.684;2023-04-27T05:52:05;99250.41;;;11.00;73.16
28079;BME280;15388;42.238;24.684;2023-04-27T05:54:31;99245.28;;;10.89;73.82
28079;BME280;15388;42.238;24.684;2023-04-27T05:56:56;99262.41;;;10.86;73.84
28079;BME280;15388;42.238;24.684;2023-04-27T05:59:22;99261.31;;;10.79;71.57
28079;BME280;15388;42.238;24.684;2023-04-27T06:01:47;99245.31;;;10.79;71.46
28079;BME280;15388;42.238;24.684;2023-04-27T06:04:12;99259.72;;;10.86;73.18
28079;BME280;15388;42.238;24.684;2023-04-27T06:06:38;99262.94;;;10.90;74.14
28079;BME280;15388;42.238;24.684;2023-04-27T06:09:04;99262.06;;;10.89;74.53
28079;BME280;15388;42.238;24.684;2023-04-27T06:11:29;99268.28;;;10.80;73.83
28079;BME280;15388;42.238;24.684;2023-04-27T06:13:55;99260.13;;;10.91;73.88
28079;BME280;15388;42.238;24.684;2023-04-27T06:16:20;99259.03;;;10.84;73.70
28079;BME280;15388;42.238;24.684;2023-04-27T06:18:45;99263.50;;;10.93;73.86
28079;BME280;15388;42.238;24.684;2023-04-27T06:21:11;99267.31;;;10.81;74.56
28079;BME280;15388;42.238;24.684;2023-04-27T06:23:36;99261.22;;;10.99;74.30
28079;BME280;15388;42.238;24.684;2023-04-27T06:26:02;99252.78;;;11.03;73.70
28079;BME280;15388;42.238;24.684;2023-04-27T06:28:28;99254.75;;;11.01;73.87
28079;BME280;15388;42.238;24.684;2023-04-27T06:30:53;99257.94;;;11.15;73.84
28079;BME280;15388;42.238;24.684;2023-04-27T06:33:19;99264.47;;;11.20;73.19
28079;BME280;15388;42.238;24.684;2023-04-27T06:35:44;99262.63;;;11.31;74.58
28079;BME280;15388;42.238;24.684;2023-04-27T06:38:10;99263.63;;;11.30;72.90
28079;BME280;15388;42.238;24.684;2023-04-27T06:40:36;99265.28;;;11.31;73.00
28079;BME280;15388;42.238;24.684;2023-04-27T06:43:01;99268.28;;;11.46;71.93
28079;BME280;15388;42.238;24.684;2023-04-27T06:45:27;99272.47;;;11.49;72.39
28079;BME280;15388;42.238;24.684;2023-04-27T06:47:52;99268.16;;;11.48;73.53
28079;BME280;15388;42.238;24.684;2023-04-27T06:50:18;99274.94;;;11.60;73.91
28079;BME280;15388;42.238;24.684;2023-04-27T06:52:43;99268.09;;;11.76;72.79
28079;BME280;15388;42.238;24.684;2023-04-27T06:55:08;99268.56;;;11.89;72.29
28079;BME280;15388;42.238;24.684;2023-04-27T06:57:34;99264.38;;;12.05;72.45
28079;BME280;15388;42.238;24.684;2023-04-27T06:59:59;99273.47;;;12.12;72.50
28079;BME280;15388;42.238;24.684;2023-04-27T07:02:25;99271.53;;;12.22;72.66
28079;BME280;15388;42.238;24.684;2023-04-27T07:04:50;99275.28;;;12.30;71.34
28079;BME280;15388;42.238;24.684;2023-04-27T07:07:16;99272.69;;;12.38;70.58
28079;BME280;15388;42.238;24.684;2023-04-27T07:09:42;99272.28;;;12.51;69.35
28079;BME280;15388;42.238;24.684;2023-04-27T07:12:07;99272.50;;;12.58;67.28
28079;BME280;15388;42.238;24.684;2023-04-27T07:14:33;99274.22;;;12.67;66.46
28079;BME280;15388;42.238;24.684;2023-04-27T07:16:58;99279.31;;;12.79;67.90
28079;BME280;15388;42.238;24.684;2023-04-27T07:19:24;99274.69;;;12.89;66.99
28079;BME280;15388;42.238;24.684;2023-04-27T07:21:49;99275.50;;;12.90;66.08
28079;BME280;15388;42.238;24.684;2023-04-27T07:24:14;99274.34;;;12.92;65.06
28079;BME280;15388;42.238;24.684;2023-04-27T07:26:40;99278.56;;;12.95;63.87
28079;BME280;15388;42.238;24.684;2023-04-27T07:29:06;99269.75;;;13.03;66.42
28079;BME280;15388;42.238;24.684;2023-04-27T07:31:33;99280.66;;;13.09;63.33
28079;BME280;15388;42.238;24.684;2023-04-27T07:33:59;99279.00;;;13.17;63.87
28079;BME280;15388;42.238;24.684;2023-04-27T07:36:24;99281.53;;;13.18;62.25
28079;BME280;15388;42.238;24.684;2023-04-27T07:38:50;99280.22;;;13.31;63.76
28079;BME280;15388;42.238;24.684;2023-04-27T07:41:17;99276.19;;;13.27;62.62
28079;BME280;15388;42.238;24.684;2023-04-27T07:43:44;99281.63;;;13.43;65.72
28079;BME280;15388;42.238;24.684;2023-04-27T07:46:09;99286.53;;;13.56;64.61
28079;BME280;15388;42.238;24.684;2023-04-27T07:48:36;99277.34;;;13.59;61.12
28079;BME280;15388;42.238;24.684;2023-04-27T07:51:01;99278.34;;;13.58;59.25
28079;BME280;15388;42.238;24.684;2023-04-27T07:53:26;99272.88;;;13.68;58.14
28079;BME280;15388;42.238;24.684;2023-04-27T07:55:52;99277.66;;;13.56;58.55
28079;BME280;15388;42.238;24.684;2023-04-27T07:58:18;99272.47;;;13.54;60.58
28079;BME280;15388;42.238;24.684;2023-04-27T08:00:44;99277.66;;;13.56;58.58
28079;BME280;15388;42.238;24.684;2023-04-27T08:03:10;99278.31;;;13.49;57.27
28079;BME280;15388;42.238;24.684;2023-04-27T08:05:35;99275.25;;;13.36;56.29
28079;BME280;15388;42.238;24.684;2023-04-27T08:08:01;99279.69;;;13.62;58.79
28079;BME280;15388;42.238;24.684;2023-04-27T08:10:26;99268.91;;;13.88;58.88
28079;BME280;15388;42.238;24.684;2023-04-27T08:12:52;99273.19;;;13.81;56.65
28079;BME280;15388;42.238;24.684;2023-04-27T08:15:19;99273.41;;;13.88;59.17
28079;BME280;15388;42.238;24.684;2023-04-27T08:17:45;99275.41;;;14.19;59.03
28079;BME280;15388;42.238;24.684;2023-04-27T08:20:11;99268.38;;;13.93;56.49
28079;BME280;15388;42.238;24.684;2023-04-27T08:22:38;99267.22;;;14.21;55.56
28079;BME280;15388;42.238;24.684;2023-04-27T08:25:04;99258.69;;;14.50;56.67
28079;BME280;15388;42.238;24.684;2023-04-27T08:27:29;99268.03;;;14.71;54.79
28079;BME280;15388;42.238;24.684;2023-04-27T08:29:55;99252.31;;;14.68;54.59
28079;BME280;15388;42.238;24.684;2023-04-27T08:32:20;99257.63;;;14.93;53.10
28079;BME280;15388;42.238;24.684;2023-04-27T08:34:46;99266.91;;;15.22;53.01
28079;BME280;15388;42.238;24.684;2023-04-27T08:37:11;99253.88;;;15.51;53.15
28079;BME280;15388;42.238;24.684;2023-04-27T08:39:37;99260.63;;;15.70;52.57
28079;BME280;15388;42.238;24.684;2023-04-27T08:42:13;99261.91;;;15.83;51.80
28079;BME280;15388;42.238;24.684;2023-04-27T08:44:43;99259.88;;;15.85;52.04
28079;BME280;15388;42.238;24.684;2023-04-27T08:47:09;99247.41;;;15.92;51.82
28079;BME280;15388;42.238;24.684;2023-04-27T08:49:35;99241.69;;;15.95;53.20
28079;BME280;15388;42.238;24.684;2023-04-27T08:52:03;99246.59;;;16.15;53.05
28079;BME280;15388;42.238;24.684;2023-04-27T08:54:29;99240.50;;;16.21;55.26
28079;BME280;15388;42.238;24.684;2023-04-27T08:56:55;99247.16;;;16.25;50.91
28079;BME280;15388;42.238;24.684;2023-04-27T08:59:21;99238.84;;;16.20;51.44
28079;BME280;15388;42.238;24.684;2023-04-27T09:01:47;99245.81;;;15.83;50.56
28079;BME280;15388;42.238;24.684;2023-04-27T09:04:13;99248.34;;;15.76;51.47
28079;BME280;15388;42.238;24.684;2023-04-27T09:06:39;99243.69;;;16.01;50.76
28079;BME280;15388;42.238;24.684;2023-04-27T09:09:04;99246.19;;;16.26;51.99
28079;BME280;15388;42.238;24.684;2023-04-27T09:11:32;99234.47;;;16.58;52.42
28079;BME280;15388;42.238;24.684;2023-04-27T09:14:00;99233.25;;;16.60;49.43
28079;BME280;15388;42.238;24.684;2023-04-27T09:16:27;99237.72;;;16.83;50.54
28079;BME280;15388;42.238;24.684;2023-04-27T09:18:54;99246.84;;;16.05;48.58
28079;BME280;15388;42.238;24.684;2023-04-27T09:21:28;99235.75;;;16.62;53.46
28079;BME280;15388;42.238;24.684;2023-04-27T09:23:54;99233.56;;;16.80;48.76
28079;BME280;15388;42.238;24.684;2023-04-27T09:26:25;99228.09;;;17.19;50.12
28079;BME280;15388;42.238;24.684;2023-04-27T09:28:53;99230.56;;;17.05;48.43
28079;BME280;15388;42.238;24.684;2023-04-27T09:31:19;99238.09;;;16.50;48.83
28079;BME280;15388;42.238;24.684;2023-04-27T09:33:45;99235.72;;;16.32;48.50
28079;BME280;15388;42.238;24.684;2023-04-27T09:36:12;99219.66;;;16.92;50.54
28079;BME280;15388;42.238;24.684;2023-04-27T09:38:37;99224.84;;;17.24;50.09
28079;BME280;15388;42.238;24.684;2023-04-27T09:41:03;99214.81;;;17.33;49.64
28079;BME280;15388;42.238;24.684;2023-04-27T09:43:29;99220.41;;;17.16;46.78
28079;BME280;15388;42.238;24.684;2023-04-27T09:45:56;99224.66;;;16.65;47.79
28079;BME280;15388;42.238;24.684;2023-04-27T09:48:23;99213.34;;;16.54;48.99
28079;BME280;15388;42.238;24.684;2023-04-27T09:50:51;99217.81;;;17.08;49.68
28079;BME280;15388;42.238;24.684;2023-04-27T09:53:24;99216.84;;;17.30;49.99
28079;BME280;15388;42.238;24.684;2023-04-27T10:01:47;99219.31;;;17.47;46.28
28079;BME280;15388;42.238;24.684;2023-04-27T10:07:09;99222.16;;;16.63;46.58
28079;BME280;15388;42.238;24.684;2023-04-27T10:09:42;99218.28;;;16.66;48.90
28079;BME280;15388;42.238;24.684;2023-04-27T10:12:16;99215.09;;;16.47;49.79
28079;BME280;15388;42.238;24.684;2023-04-27T10:14:56;99213.69;;;16.51;49.08
28079;BME280;15388;42.238;24.684;2023-04-27T10:20:09;99215.13;;;16.77;47.93
28079;BME280;15388;42.238;24.684;2023-04-27T10:22:39;99226.50;;;16.79;48.62
28079;BME280;15388;42.238;24.684;2023-04-27T10:25:20;99212.44;;;16.77;45.66
28079;BME280;15388;42.238;24.684;2023-04-27T10:27:54;99219.84;;;16.75;48.64
28079;BME280;15388;42.238;24.684;2023-04-27T10:30:23;99215.84;;;16.71;47.42
28079;BME280;15388;42.238;24.684;2023-04-27T10:32:54;99227.06;;;16.90;45.00
28079;BME280;15388;42.238;24.684;2023-04-27T10:35:21;99229.84;;;16.81;44.43
28079;BME280;15388;42.238;24.684;2023-04-27T10:37:47;99222.91;;;16.87;43.09
28079;BME280;15388;42.238;24.684;2023-04-27T10:40:14;99221.50;;;16.91;44.30
28079;BME280;15388;42.238;24.684;2023-04-27T10:42:44;99223.66;;;16.96;44.33
28079;BME280;15388;42.238;24.684;2023-04-27T10:45:10;99220.22;;;17.02;44.64
28079;BME280;15388;42.238;24.684;2023-04-27T10:47:43;99224.00;;;17.23;44.79
28079;BME280;15388;42.238;24.684;2023-04-27T10:50:12;99225.59;;;16.87;43.02
28079;BME280;15388;42.238;24.684;2023-04-27T10:52:44;99219.84;;;16.75;42.75
28079;BME280;15388;42.238;24.684;2023-04-27T10:55:20;99232.53;;;16.66;42.30
28079;BME280;15388;42.238;24.684;2023-04-27T10:57:49;99226.34;;;16.66;42.14
28079;BME280;15388;42.238;24.684;2023-04-27T11:00:40;99234.41;;;16.27;42.46
28079;BME280;15388;42.238;24.684;2023-04-27T11:03:13;99230.47;;;16.53;44.10
28079;BME280;15388;42.238;24.684;2023-04-27T11:05:41;99226.94;;;16.53;43.32
28079;BME280;15388;42.238;24.684;2023-04-27T11:08:09;99231.16;;;16.55;43.76
28079;BME280;15388;42.238;24.684;2023-04-27T11:10:39;99225.56;;;16.42;42.09
28079;BME280;15388;42.238;24.684;2023-04-27T11:13:13;99231.88;;;16.49;43.70
28079;BME280;15388;42.238;24.684;2023-04-27T11:18:11;99223.25;;;16.54;44.65
28079;BME280;15388;42.238;24.684;2023-04-27T11:20:38;99225.78;;;16.55;43.74
28079;BME280;15388;42.238;24.684;2023-04-27T11:23:04;99231.97;;;16.56;42.62
28079;BME280;15388;42.238;24.684;2023-04-27T11:25:30;99232.91;;;16.48;41.47
28079;BME280;15388;42.238;24.684;2023-04-27T11:27:56;99236.97;;;16.59;43.02
28079;BME280;15388;42.238;24.684;2023-04-27T11:30:22;99241.53;;;16.59;40.99
28079;BME280;15388;42.238;24.684;2023-04-27T11:32:49;99236.03;;;16.52;41.30
28079;BME280;15388;42.238;24.684;2023-04-27T11:35:14;99231.72;;;16.66;40.36
28079;BME280;15388;42.238;24.684;2023-04-27T11:37:40;99235.88;;;16.68;40.69
28079;BME280;15388;42.238;24.684;2023-04-27T11:40:07;99237.44;;;16.63;40.34
28079;BME280;15388;42.238;24.684;2023-04-27T11:42:33;99237.91;;;16.66;41.28
28079;BME280;15388;42.238;24.684;2023-04-27T11:45:04;99234.09;;;16.61;41.24
28079;BME280;15388;42.238;24.684;2023-04-27T11:47:33;99240.97;;;16.78;39.44
28079;BME280;15388;42.238;24.684;2023-04-27T11:50:02;99229.56;;;16.91;39.22
28079;BME280;15388;42.238;24.684;2023-04-27T11:52:34;99228.19;;;16.80;39.38
28079;BME280;15388;42.238;24.684;2023-04-27T11:55:01;99227.53;;;16.93;40.70
28079;BME280;15388;42.238;24.684;2023-04-27T11:57:30;99224.50;;;17.12;39.93
28079;BME280;15388;42.238;24.684;2023-04-27T11:59:57;99223.91;;;17.01;39.51
28079;BME280;15388;42.238;24.684;2023-04-27T12:02:24;99223.75;;;16.88;39.14
28079;BME280;15388;42.238;24.684;2023-04-27T12:04:51;99223.84;;;17.10;41.00
28079;BME280;15388;42.238;24.684;2023-04-27T12:07:17;99217.84;;;17.44;39.99
28079;BME280;15388;42.238;24.684;2023-04-27T12:09:42;99218.31;;;17.70;40.24
28079;BME280;15388;42.238;24.684;2023-04-27T12:12:09;99224.72;;;17.91;41.37
28079;BME280;15388;42.238;24.684;2023-04-27T12:14:35;99222.56;;;18.01;37.70
28079;BME280;15388;42.238;24.684;2023-04-27T12:17:01;99229.09;;;17.92;37.76
28079;BME280;15388;42.238;24.684;2023-04-27T12:19:26;99232.03;;;17.97;39.85
28079;BME280;15388;42.238;24.684;2023-04-27T12:21:52;99222.44;;;17.88;41.02
28079;BME280;15388;42.238;24.684;2023-04-27T12:24:18;99235.91;;;18.10;41.17
28079;BME280;15388;42.238;24.684;2023-04-27T12:26:44;99222.38;;;18.25;39.86
28079;BME280;15388;42.238;24.684;2023-04-27T12:29:11;99225.91;;;18.54;41.46
28079;BME280;15388;42.238;24.684;2023-04-27T12:31:36;99225.44;;;18.50;38.77
28079;BME280;15388;42.238;24.684;2023-04-27T12:34:01;99228.88;;;18.66;40.88
28079;BME280;15388;42.238;24.684;2023-04-27T12:36:27;99225.25;;;18.80;39.90
28079;BME280;15388;42.238;24.684;2023-04-27T12:38:58;99223.63;;;18.93;37.98
28079;BME280;15388;42.238;24.684;2023-04-27T12:41:23;99227.13;;;19.22;38.60
28079;BME280;15388;42.238;24.684;2023-04-27T12:43:49;99224.69;;;19.41;38.49
28079;BME280;15388;42.238;24.684;2023-04-27T12:46:15;99226.31;;;19.28;37.77
28079;BME280;15388;42.238;24.684;2023-04-27T12:48:43;99226.78;;;19.52;36.61
28079;BME280;15388;42.238;24.684;2023-04-27T12:51:09;99230.94;;;19.48;37.20
28079;BME280;15388;42.238;24.684;2023-04-27T12:53:34;99224.75;;;19.54;36.64
28079;BME280;15388;42.238;24.684;2023-04-27T12:56:01;99229.38;;;19.74;34.77
28079;BME280;15388;42.238;24.684;2023-04-27T12:58:27;99226.31;;;19.28;35.15
28079;BME280;15388;42.238;24.684;2023-04-27T13:00:54;99217.09;;;19.71;35.85